Time;durP1;ratioP1;P1;durP2;ratioP2;P2;SDS_P1;SDS_P2;PMS_P1;PMS_P2;Temp;Humidity;BMP_temperature;BMP_pressure;BME280_temperature;BME280_humidity;BME280_pressure;Samples;Min_cycle;Max_cycle;Signal;HPM_P1;HPM_P2
2023/08/23 00:00:49;;;;;;;0.68;0.30;;;23.70;76.10;;;;;;5023583;28;20048;-76
2023/08/23 00:03:14;;;;;;;0.25;0.25;;;23.70;76.30;;;;;;5026195;28;20065;-76
2023/08/23 00:05:42;;;;;;;0.28;0.28;;;23.70;77.10;;;;;;5026225;28;20041;-76
2023/08/23 00:08:08;;;;;;;0.20;0.20;;;23.70;76.40;;;;;;5025499;28;20099;-76
2023/08/23 00:10:33;;;;;;;0.28;0.28;;;23.70;76.40;;;;;;5026344;28;20049;-76
2023/08/23 00:12:59;;;;;;;0.75;0.28;;;23.70;76.40;;;;;;5026039;28;20124;-76
2023/08/23 00:15:25;;;;;;;0.22;0.22;;;23.70;76.40;;;;;;5026343;28;20402;-76
2023/08/23 00:17:50;;;;;;;0.10;0.10;;;23.70;76.40;;;;;;5023185;28;20514;-76
2023/08/23 00:20:16;;;;;;;0.40;0.30;;;23.70;76.40;;;;;;5024819;28;20041;-76
2023/08/23 00:22:41;;;;;;;0.30;0.30;;;23.70;76.40;;;;;;5025381;28;20049;-76
2023/08/23 00:25:08;;;;;;;0.60;0.20;;;23.70;76.40;;;;;;5025326;28;20532;-76
2023/08/23 00:27:39;;;;;;;0.22;0.20;;;23.70;76.40;;;;;;5023920;28;20045;-76
2023/08/23 00:30:05;;;;;;;0.28;0.22;;;23.70;76.30;;;;;;5025665;28;20129;-76
2023/08/23 00:32:37;;;;;;;0.17;0.17;;;23.70;76.40;;;;;;5025764;28;20033;-76
2023/08/23 00:35:06;;;;;;;0.40;0.30;;;23.70;76.40;;;;;;5016680;28;20029;-75
2023/08/23 00:37:32;;;;;;;0.28;0.25;;;23.70;76.40;;;;;;5027435;28;20073;-76
2023/08/23 00:40:03;;;;;;;0.32;0.20;;;23.70;76.40;;;;;;5027119;28;20462;-76
2023/08/23 00:42:29;;;;;;;0.20;0.20;;;23.70;76.30;;;;;;5030977;28;20053;-75
2023/08/23 00:44:54;;;;;;;0.32;0.13;;;23.70;76.40;;;;;;5029594;28;20577;-76
2023/08/23 00:47:20;;;;;;;0.20;0.20;;;23.70;76.40;;;;;;5027107;28;20045;-76
2023/08/23 00:49:46;;;;;;;0.20;0.20;;;23.70;76.40;;;;;;5028484;28;20041;-76
2023/08/23 00:52:12;;;;;;;0.20;0.20;;;23.70;76.40;;;;;;5029697;28;20079;-76
2023/08/23 00:54:37;;;;;;;0.47;0.47;;;23.70;76.40;;;;;;5027662;28;20041;-76
2023/08/23 00:57:03;;;;;;;0.17;0.13;;;23.70;76.40;;;;;;5027641;28;20084;-76
2023/08/23 00:59:31;;;;;;;0.30;0.30;;;23.70;76.40;;;;;;5028528;28;20099;-76
2023/08/23 01:01:57;;;;;;;0.20;0.20;;;23.70;76.30;;;;;;5009405;28;20503;-76
2023/08/23 01:04:23;;;;;;;0.35;0.20;;;23.70;76.30;;;;;;5023389;28;20068;-76
2023/08/23 01:07:08;;;;;;;0.45;0.15;;;23.70;76.30;;;;;;5028617;28;20099;-76
2023/08/23 01:10:00;;;;;;;0.55;0.30;;;23.70;76.40;;;;;;5027085;28;20531;-76
2023/08/23 01:12:29;;;;;;;0.15;0.10;;;23.70;76.40;;;;;;5029485;28;20545;-76
2023/08/23 01:15:04;;;;;;;0.20;0.20;;;23.70;76.30;;;;;;5026804;28;20542;-75
2023/08/23 01:17:31;;;;;;;0.30;0.30;;;23.70;76.70;;;;;;5028105;28;20127;-76
2023/08/23 01:19:57;;;;;;;0.10;0.10;;;23.70;76.50;;;;;;5028015;28;20041;-76
2023/08/23 01:22:23;;;;;;;0.30;0.30;;;23.70;76.40;;;;;;5027349;28;20050;-76
2023/08/23 01:24:48;;;;;;;0.50;0.50;;;23.70;76.90;;;;;;5025799;28;20502;-76
2023/08/23 01:27:17;;;;;;;0.22;0.22;;;23.70;76.50;;;;;;5030988;28;20068;-76
2023/08/23 01:29:44;;;;;;;0.30;0.22;;;23.70;76.80;;;;;;5025148;28;20049;-76
2023/08/23 01:32:49;;;;;;;0.45;0.20;;;23.70;76.50;;;;;;5028336;28;22108;-76
2023/08/23 01:35:21;;;;;;;0.75;0.20;;;23.70;76.80;;;;;;5009286;28;20049;-76
2023/08/23 01:37:50;;;;;;;0.20;0.20;;;23.70;76.60;;;;;;5024699;28;20057;-76
2023/08/23 01:40:15;;;;;;;0.32;0.30;;;23.70;76.90;;;;;;5057011;28;20521;-76
2023/08/23 01:42:41;;;;;;;0.10;0.10;;;23.70;76.50;;;;;;5027961;28;20546;-76
2023/08/23 01:45:07;;;;;;;0.45;0.40;;;23.70;76.70;;;;;;5027496;28;20569;-75
2023/08/23 01:47:33;;;;;;;0.20;0.20;;;23.70;76.80;;;;;;5029388;28;20033;-76
2023/08/23 01:49:58;;;;;;;0.30;0.30;;;23.70;76.90;;;;;;5027612;28;20392;-76
2023/08/23 01:52:24;;;;;;;0.10;0.10;;;23.60;77.10;;;;;;5027875;28;20064;-76
2023/08/23 01:54:49;;;;;;;0.70;0.20;;;23.70;77.00;;;;;;5025496;28;20049;-76
2023/08/23 01:57:15;;;;;;;0.40;0.20;;;23.60;76.80;;;;;;5029215;28;20092;-76
2023/08/23 01:59:41;;;;;;;0.20;0.10;;;23.60;76.90;;;;;;5010916;28;20099;-76
2023/08/23 02:02:06;;;;;;;0.20;0.20;;;23.60;77.00;;;;;;5027890;28;20049;-76
2023/08/23 02:04:32;;;;;;;0.30;0.20;;;23.60;77.00;;;;;;5028844;28;20041;-76
2023/08/23 02:06:57;;;;;;;0.28;0.10;;;23.60;77.00;;;;;;5028175;28;20049;-75
2023/08/23 02:09:23;;;;;;;0.47;0.40;;;23.60;77.00;;;;;;5028261;28;20049;-76
2023/08/23 02:11:48;;;;;;;0.20;0.20;;;23.60;77.00;;;;;;5024243;28;20136;-76
2023/08/23 02:14:14;;;;;;;0.20;0.20;;;23.60;77.00;;;;;;5027697;28;20569;-76
2023/08/23 02:16:39;;;;;;;0.10;0.10;;;23.60;76.90;;;;;;5027509;28;20049;-76
2023/08/23 02:19:05;;;;;;;0.20;0.20;;;23.60;77.20;;;;;;5027889;28;20049;-76
2023/08/23 02:21:30;;;;;;;0.32;0.25;;;23.60;77.20;;;;;;5028863;28;20099;-76
2023/08/23 02:23:56;;;;;;;0.30;0.20;;;23.60;77.10;;;;;;5024615;28;20095;-76
2023/08/23 02:26:22;;;;;;;0.70;0.70;;;23.60;77.10;;;;;;5024030;28;20478;-76
2023/08/23 02:28:47;;;;;;;0.20;0.15;;;23.60;77.10;;;;;;5026730;28;20111;-76
2023/08/23 02:31:13;;;;;;;0.52;0.32;;;23.60;77.10;;;;;;5028568;28;20414;-76
2023/08/23 02:33:38;;;;;;;0.43;0.20;;;23.70;77.30;;;;;;5026936;28;20045;-76
2023/08/23 02:36:04;;;;;;;0.38;0.20;;;23.60;78.00;;;;;;5031212;28;20053;-76
2023/08/23 02:38:30;;;;;;;0.82;0.20;;;23.60;77.10;;;;;;5028692;28;20396;-75
2023/08/23 02:40:55;;;;;;;0.95;0.30;;;23.60;77.00;;;;;;5027166;28;20503;-76
2023/08/23 02:43:21;;;;;;;0.82;0.30;;;23.60;77.10;;;;;;5028880;28;20057;-76
2023/08/23 02:45:47;;;;;;;0.52;0.30;;;23.60;77.80;;;;;;5030154;28;20510;-76
2023/08/23 02:48:12;;;;;;;0.40;0.25;;;23.60;77.10;;;;;;5027597;28;20121;-76
2023/08/23 02:50:38;;;;;;;0.32;0.20;;;23.60;77.10;;;;;;5024662;28;20487;-76
2023/08/23 02:53:04;;;;;;;0.35;0.30;;;23.60;77.00;;;;;;5023512;28;20415;-76
2023/08/23 02:55:29;;;;;;;0.95;0.40;;;23.60;77.00;;;;;;5026714;28;20049;-76
2023/08/23 02:57:55;;;;;;;0.28;0.20;;;23.60;76.80;;;;;;5026682;28;20049;-76
2023/08/23 03:00:20;;;;;;;0.20;0.20;;;23.60;76.90;;;;;;5028926;28;20433;-76
2023/08/23 03:02:46;;;;;;;0.35;0.20;;;23.60;76.90;;;;;;5023125;28;20121;-75
2023/08/23 03:05:11;;;;;;;0.20;0.20;;;23.60;76.80;;;;;;5023496;28;20038;-76
2023/08/23 03:07:37;;;;;;;0.43;0.20;;;23.60;77.60;;;;;;5027688;28;20400;-76
2023/08/23 03:10:03;;;;;;;0.68;0.30;;;23.60;77.00;;;;;;5023764;28;20030;-75
2023/08/23 03:12:28;;;;;;;0.35;0.20;;;23.60;76.70;;;;;;5028465;28;20033;-76
2023/08/23 03:14:54;;;;;;;0.57;0.20;;;23.70;76.50;;;;;;5025680;28;20423;-76
2023/08/23 03:17:19;;;;;;;1.08;0.50;;;23.60;76.70;;;;;;5027066;28;20045;-76
2023/08/23 03:19:45;;;;;;;0.28;0.20;;;23.70;76.60;;;;;;5027086;28;20033;-76
2023/08/23 03:22:10;;;;;;;0.63;0.60;;;23.60;76.40;;;;;;5026678;28;20052;-76
2023/08/23 03:24:36;;;;;;;0.35;0.30;;;23.60;76.60;;;;;;5028003;28;20042;-76
2023/08/23 03:27:02;;;;;;;0.20;0.20;;;23.60;76.60;;;;;;5026392;28;20592;-76
2023/08/23 03:29:27;;;;;;;0.88;0.52;;;23.60;76.50;;;;;;5026832;28;20044;-76
2023/08/23 03:31:53;;;;;;;0.22;0.20;;;23.60;76.50;;;;;;5025580;28;20034;-76
2023/08/23 03:34:18;;;;;;;0.20;0.20;;;23.60;76.50;;;;;;5024927;28;20073;-76
2023/08/23 03:36:44;;;;;;;0.30;0.13;;;23.60;76.50;;;;;;5027316;28;20609;-76
2023/08/23 03:39:09;;;;;;;0.20;0.10;;;23.60;76.70;;;;;;5023800;28;20428;-76
2023/08/23 03:41:35;;;;;;;0.30;0.30;;;23.60;76.50;;;;;;5026976;28;20030;-76
2023/08/23 03:44:01;;;;;;;0.20;0.20;;;23.60;76.80;;;;;;5025968;28;20487;-75
2023/08/23 03:46:26;;;;;;;0.20;0.20;;;23.60;76.70;;;;;;5025570;28;20459;-76
2023/08/23 03:48:52;;;;;;;0.30;0.25;;;23.60;76.60;;;;;;5027340;28;20045;-76
2023/08/23 03:51:17;;;;;;;0.20;0.20;;;23.60;76.40;;;;;;5022778;28;20049;-76
2023/08/23 03:53:43;;;;;;;0.38;0.17;;;23.60;76.50;;;;;;5025827;28;20038;-76
2023/08/23 03:56:09;;;;;;;1.33;0.15;;;23.60;76.30;;;;;;5025643;28;20044;-76
2023/08/23 03:58:35;;;;;;;1.45;0.45;;;23.70;76.40;;;;;;5026417;28;20129;-76
2023/08/23 04:01:00;;;;;;;0.10;0.10;;;23.60;76.70;;;;;;5024751;28;20601;-75
2023/08/23 04:03:26;;;;;;;0.20;0.20;;;23.60;76.90;;;;;;5027095;28;20044;-75
2023/08/23 04:05:51;;;;;;;0.10;0.10;;;23.60;77.50;;;;;;5026195;28;20574;-76
2023/08/23 04:08:17;;;;;;;0.22;0.20;;;23.60;78.10;;;;;;5026070;28;20053;-75
2023/08/23 04:10:49;;;;;;;0.17;0.17;;;23.60;77.60;;;;;;5026396;28;20052;-76
2023/08/23 04:13:15;;;;;;;0.10;0.10;;;23.70;77.60;;;;;;5025797;28;20038;-76
2023/08/23 04:15:42;;;;;;;0.10;0.10;;;23.70;77.80;;;;;;5025649;28;20517;-76
2023/08/23 04:18:07;;;;;;;0.25;0.20;;;23.70;77.60;;;;;;5026018;28;20049;-75
2023/08/23 04:20:33;;;;;;;0.50;0.32;;;23.70;77.90;;;;;;5025455;28;20051;-76
2023/08/23 04:22:58;;;;;;;0.10;0.10;;;23.70;77.90;;;;;;5025485;28;20132;-76
2023/08/23 04:25:24;;;;;;;0.10;0.10;;;23.70;77.80;;;;;;5025589;28;20049;-76
2023/08/23 04:27:49;;;;;;;0.30;0.30;;;23.70;77.50;;;;;;5024238;28;20045;-76
2023/08/23 04:30:15;;;;;;;0.20;0.20;;;23.70;77.70;;;;;;5026353;28;20045;-76
2023/08/23 04:32:40;;;;;;;0.20;0.20;;;23.70;77.80;;;;;;5025790;28;20041;-75
2023/08/23 04:35:06;;;;;;;0.22;0.20;;;23.70;77.60;;;;;;5025245;28;20099;-76
2023/08/23 04:37:32;;;;;;;0.20;0.20;;;23.60;77.30;;;;;;5025687;28;20049;-76
2023/08/23 04:39:57;;;;;;;0.90;0.50;;;23.60;77.50;;;;;;5026046;28;20104;-76
2023/08/23 04:42:23;;;;;;;0.82;0.82;;;23.50;71.40;;;;;;5025914;28;20046;-77
2023/08/23 04:44:49;;;;;;;2.28;1.10;;;22.60;70.60;;;;;;5026002;28;20499;-77
2023/08/23 04:47:14;;;;;;;1.90;1.10;;;21.70;73.40;;;;;;5025093;28;20079;-76
2023/08/23 04:49:40;;;;;;;2.03;1.23;;;21.30;75.40;;;;;;5024491;28;20042;-77
2023/08/23 04:52:05;;;;;;;1.55;1.20;;;21.00;76.30;;;;;;5021944;28;20041;-77
2023/08/23 04:54:31;;;;;;;2.83;1.20;;;20.90;76.90;;;;;;5026853;28;20045;-77
2023/08/23 04:56:56;;;;;;;1.52;1.20;;;20.70;77.40;;;;;;5025725;28;20049;-77
2023/08/23 04:59:22;;;;;;;2.65;1.63;;;20.60;78.10;;;;;;5024817;28;20427;-77
2023/08/23 05:01:48;;;;;;;1.30;1.20;;;20.50;78.40;;;;;;5025013;28;20045;-76
2023/08/23 05:04:13;;;;;;;1.10;0.88;;;20.50;78.60;;;;;;5024952;28;20035;-76
2023/08/23 05:06:40;;;;;;;1.20;1.10;;;20.30;79.10;;;;;;5023083;28;20065;-76
2023/08/23 05:09:05;;;;;;;4.20;1.10;;;20.30;79.40;;;;;;5024213;28;20140;-77
2023/08/23 05:11:31;;;;;;;0.98;0.93;;;20.20;79.70;;;;;;5025760;28;20460;-77
2023/08/23 05:13:57;;;;;;;1.83;1.33;;;20.10;80.10;;;;;;5025728;28;20524;-77
2023/08/23 05:16:22;;;;;;;2.00;1.20;;;20.20;80.10;;;;;;5025212;28;20103;-77
2023/08/23 05:18:48;;;;;;;1.38;1.13;;;20.00;80.10;;;;;;5025776;28;20049;-77
2023/08/23 05:21:14;;;;;;;2.38;1.40;;;20.10;80.20;;;;;;5026598;28;20418;-77
2023/08/23 05:23:39;;;;;;;1.23;1.13;;;20.10;80.40;;;;;;5024861;28;20049;-76
2023/08/23 05:26:05;;;;;;;2.67;1.15;;;20.10;80.20;;;;;;5028173;28;20117;-76
2023/08/23 05:28:32;;;;;;;1.63;1.27;;;20.00;80.50;;;;;;5026325;28;20389;-76
2023/08/23 05:30:58;;;;;;;2.42;1.75;;;20.00;80.90;;;;;;5025831;28;20048;-76
2023/08/23 05:33:23;;;;;;;1.63;1.50;;;19.90;81.00;;;;;;5029823;28;20057;-77
2023/08/23 05:35:49;;;;;;;1.63;1.52;;;19.80;81.10;;;;;;5028537;28;20168;-76
2023/08/23 05:38:15;;;;;;;2.10;1.50;;;19.80;82.40;;;;;;5028642;28;20478;-77
2023/08/23 05:40:40;;;;;;;1.83;1.30;;;19.70;81.70;;;;;;5028948;28;20522;-79
2023/08/23 05:43:06;;;;;;;1.70;1.40;;;19.70;81.70;;;;;;5028165;28;20511;-79
2023/08/23 05:45:32;;;;;;;2.40;1.75;;;19.70;81.90;;;;;;5028674;28;20687;-77
2023/08/23 05:47:58;;;;;;;1.92;1.30;;;19.70;82.00;;;;;;5027233;28;20041;-79
2023/08/23 05:50:24;;;;;;;1.63;1.50;;;19.70;82.30;;;;;;5026338;28;20075;-79
2023/08/23 05:52:49;;;;;;;4.13;1.95;;;19.70;82.10;;;;;;5025005;28;20037;-76
2023/08/23 05:55:15;;;;;;;2.30;1.50;;;19.70;82.20;;;;;;5028035;28;20133;-77
2023/08/23 05:57:41;;;;;;;2.50;1.23;;;19.80;81.90;;;;;;5029666;28;20128;-77
2023/08/23 06:00:07;;;;;;;1.40;1.23;;;19.80;82.00;;;;;;5028121;28;20056;-77
2023/08/23 06:02:32;;;;;;;1.77;1.40;;;19.80;82.10;;;;;;5023300;28;20049;-77
2023/08/23 06:04:58;;;;;;;1.52;1.42;;;19.80;82.10;;;;;;5024000;28;20103;-77
2023/08/23 06:07:24;;;;;;;2.28;1.80;;;19.70;82.30;;;;;;5026808;28;20044;-77
2023/08/23 06:09:49;;;;;;;2.63;1.55;;;19.80;82.40;;;;;;5024808;28;20132;-77
2023/08/23 06:12:15;;;;;;;1.80;1.70;;;19.70;82.60;;;;;;5027753;28;20033;-76
2023/08/23 06:14:40;;;;;;;1.70;1.60;;;19.70;82.80;;;;;;5028217;28;20503;-76
2023/08/23 06:17:06;;;;;;;1.60;1.50;;;19.70;82.50;;;;;;5027087;28;20511;-75
2023/08/23 06:19:32;;;;;;;3.35;1.73;;;19.70;82.60;;;;;;5027959;28;20076;-76
2023/08/23 06:21:58;;;;;;;1.80;1.70;;;19.80;82.50;;;;;;5024288;28;20041;-75
2023/08/23 06:24:23;;;;;;;1.55;1.52;;;19.70;82.90;;;;;;5028505;28;20064;-75
2023/08/23 06:26:50;;;;;;;1.70;1.60;;;19.80;82.30;;;;;;5026378;28;20117;-76
2023/08/23 06:29:19;;;;;;;1.70;1.60;;;19.80;82.70;;;;;;5024294;28;20120;-74
2023/08/23 06:31:44;;;;;;;1.73;1.40;;;19.80;82.70;;;;;;5023547;28;20050;-75
2023/08/23 06:34:10;;;;;;;1.90;1.58;;;19.90;82.50;;;;;;5023657;28;20924;-76
2023/08/23 06:36:35;;;;;;;1.70;1.60;;;19.80;82.70;;;;;;5023787;28;20073;-75
2023/08/23 06:39:02;;;;;;;1.95;1.85;;;19.90;82.60;;;;;;5023058;28;20396;-75
2023/08/23 06:41:28;;;;;;;1.88;1.77;;;19.80;82.80;;;;;;5021152;28;20103;-75
2023/08/23 06:44:01;;;;;;;2.42;1.80;;;19.80;82.80;;;;;;5024034;28;20049;-75
2023/08/23 06:46:27;;;;;;;2.00;1.90;;;19.80;83.20;;;;;;5023840;28;20033;-75
2023/08/23 06:48:53;;;;;;;2.25;1.80;;;20.00;82.40;;;;;;5024889;28;20049;-76
2023/08/23 06:51:20;;;;;;;2.05;1.88;;;20.00;81.80;;;;;;5023437;28;20122;-76
2023/08/23 06:53:45;;;;;;;1.55;1.45;;;20.00;82.20;;;;;;5025023;28;20515;-76
2023/08/23 06:56:11;;;;;;;2.20;1.98;;;20.10;81.80;;;;;;5024155;28;20049;-75
2023/08/23 06:58:37;;;;;;;1.92;1.83;;;20.10;82.00;;;;;;5026162;28;20464;-75
2023/08/23 07:01:05;;;;;;;1.58;1.42;;;20.10;82.10;;;;;;5026365;28;20052;-75
2023/08/23 07:03:31;;;;;;;4.03;2.28;;;19.90;82.60;;;;;;5027707;28;20041;-75
2023/08/23 07:05:58;;;;;;;1.95;1.75;;;20.00;82.50;;;;;;5026867;28;20049;-75
2023/08/23 07:08:24;;;;;;;1.80;1.70;;;19.90;82.90;;;;;;5025497;28;20503;-75
2023/08/23 07:10:49;;;;;;;2.22;2.00;;;20.00;83.10;;;;;;5025532;28;20068;-75
2023/08/23 07:13:15;;;;;;;2.33;2.03;;;20.10;83.20;;;;;;5025991;28;20495;-75
2023/08/23 07:15:40;;;;;;;1.90;1.80;;;20.20;82.50;;;;;;5026960;28;20038;-75
2023/08/23 07:18:07;;;;;;;1.80;1.70;;;20.40;81.30;;;;;;5026053;28;20041;-75
2023/08/23 07:20:33;;;;;;;1.75;1.65;;;20.30;81.40;;;;;;5025535;28;20507;-76
2023/08/23 07:22:59;;;;;;;1.85;1.73;;;20.30;81.50;;;;;;5023583;28;20049;-76
2023/08/23 07:25:24;;;;;;;1.42;1.33;;;20.30;81.20;;;;;;5026187;28;20048;-75
2023/08/23 07:27:50;;;;;;;2.78;1.70;;;20.40;81.50;;;;;;5027406;28;20105;-75
2023/08/23 07:30:16;;;;;;;2.05;1.95;;;20.20;82.00;;;;;;5025881;28;20022;-75
2023/08/23 07:32:42;;;;;;;2.67;2.08;;;20.30;81.90;;;;;;5049374;28;20029;-75
2023/08/23 07:35:08;;;;;;;2.00;1.77;;;20.30;82.10;;;;;;5024921;28;20360;-75
2023/08/23 07:37:34;;;;;;;3.25;1.30;;;20.30;82.10;;;;;;5021821;28;20057;-75
2023/08/23 07:39:59;;;;;;;2.00;1.85;;;20.40;82.30;;;;;;5026475;28;20068;-75
2023/08/23 07:42:27;;;;;;;2.88;1.90;;;20.40;82.00;;;;;;5026213;28;20037;-75
2023/08/23 07:44:53;;;;;;;1.90;1.80;;;20.30;82.40;;;;;;5024379;28;20201;-75
2023/08/23 07:47:18;;;;;;;1.98;1.88;;;20.30;82.50;;;;;;5023772;28;20045;-75
2023/08/23 07:49:44;;;;;;;1.55;1.45;;;20.40;82.30;;;;;;5020869;28;20435;-76
2023/08/23 07:52:09;;;;;;;1.75;1.65;;;20.40;82.00;;;;;;5026727;28;20061;-76
2023/08/23 07:54:35;;;;;;;2.00;1.80;;;20.50;81.80;;;;;;5024258;28;20038;-75
2023/08/23 07:57:00;;;;;;;1.48;1.38;;;20.40;81.80;;;;;;5025735;28;20080;-76
2023/08/23 07:59:26;;;;;;;1.20;1.10;;;20.50;81.70;;;;;;5025448;28;20056;-76
2023/08/23 08:01:51;;;;;;;1.17;1.08;;;20.60;81.30;;;;;;5024893;28;20053;-75
2023/08/23 08:04:17;;;;;;;2.38;0.90;;;20.80;80.60;;;;;;5025622;28;20392;-75
2023/08/23 08:06:43;;;;;;;1.45;1.00;;;21.00;79.70;;;;;;5021090;28;20049;-76
2023/08/23 08:09:08;;;;;;;2.60;1.13;;;21.10;80.20;;;;;;5025192;28;20048;-76
2023/08/23 08:11:34;;;;;;;1.38;1.15;;;21.20;79.10;;;;;;5023088;28;20121;-76
2023/08/23 08:13:59;;;;;;;2.08;1.20;;;21.30;78.70;;;;;;5024781;28;20045;-76
2023/08/23 08:16:25;;;;;;;1.08;0.88;;;21.20;78.90;;;;;;5024315;28;20561;-76
2023/08/23 08:18:51;;;;;;;1.33;0.88;;;21.10;79.20;;;;;;5020780;28;20442;-76
2023/08/23 08:21:17;;;;;;;0.95;0.95;;;21.10;79.40;;;;;;5025087;28;20076;-76
2023/08/23 08:23:46;;;;;;;1.63;0.90;;;21.10;79.50;;;;;;5021630;28;20103;-76
2023/08/23 08:26:13;;;;;;;0.80;0.80;;;21.10;79.20;;;;;;5023737;28;20127;-76
2023/08/23 08:28:42;;;;;;;2.88;0.90;;;21.10;79.30;;;;;;5022738;28;20511;-76
2023/08/23 08:31:08;;;;;;;0.80;0.68;;;21.20;79.30;;;;;;5025066;28;20038;-76
2023/08/23 08:33:34;;;;;;;0.90;0.90;;;21.20;79.10;;;;;;5022070;28;20052;-76
2023/08/23 08:36:00;;;;;;;1.30;0.90;;;21.30;79.00;;;;;;5018718;28;20038;-75
2023/08/23 08:38:25;;;;;;;1.38;0.88;;;21.40;78.80;;;;;;5024507;28;20585;-76
2023/08/23 08:40:51;;;;;;;0.80;0.80;;;21.30;79.00;;;;;;5021161;28;20108;-75
2023/08/23 08:43:18;;;;;;;0.77;0.70;;;21.40;78.70;;;;;;5020871;28;20053;-76
2023/08/23 08:45:44;;;;;;;1.25;0.85;;;21.50;78.80;;;;;;5026386;28;20423;-76
2023/08/23 08:48:10;;;;;;;2.13;0.90;;;21.50;78.50;;;;;;5023102;28;20096;-75
2023/08/23 08:50:35;;;;;;;0.70;0.70;;;21.50;78.60;;;;;;5020283;28;20443;-76
2023/08/23 08:53:01;;;;;;;1.33;0.70;;;21.50;78.70;;;;;;5022995;28;20410;-76
2023/08/23 08:55:26;;;;;;;1.25;0.70;;;21.50;79.40;;;;;;5022351;28;20793;-76
2023/08/23 08:57:53;;;;;;;0.77;0.70;;;21.50;78.50;;;;;;5022237;28;20049;-76
2023/08/23 09:00:22;;;;;;;0.77;0.77;;;21.60;78.60;;;;;;5020682;28;20088;-76
2023/08/23 09:02:47;;;;;;;0.70;0.70;;;21.60;78.80;;;;;;5022217;28;20487;-77
2023/08/23 09:05:13;;;;;;;2.08;0.68;;;21.70;78.70;;;;;;5028193;28;20547;-76
2023/08/23 09:07:40;;;;;;;0.80;0.52;;;21.70;78.60;;;;;;5027473;28;20037;-76
2023/08/23 09:10:05;;;;;;;0.73;0.70;;;21.70;78.40;;;;;;5028546;28;20462;-75
2023/08/23 09:12:31;;;;;;;0.60;0.50;;;21.80;79.00;;;;;;5028650;28;20057;-76
2023/08/23 09:15:01;;;;;;;1.35;0.80;;;21.80;78.90;;;;;;5024492;28;20065;-76
2023/08/23 09:17:32;;;;;;;0.63;0.60;;;21.80;78.70;;;;;;5026113;28;20471;-76
2023/08/23 09:19:58;;;;;;;0.65;0.60;;;21.80;79.40;;;;;;5027835;28;20439;-76
2023/08/23 09:22:23;;;;;;;0.77;0.60;;;21.80;78.80;;;;;;5027502;28;20072;-76
2023/08/23 09:24:49;;;;;;;0.80;0.60;;;21.90;79.40;;;;;;5025696;28;20507;-77
2023/08/23 09:27:15;;;;;;;1.05;0.50;;;21.90;78.80;;;;;;5025867;28;20452;-76
2023/08/23 09:29:41;;;;;;;1.08;0.40;;;21.90;78.50;;;;;;5022068;28;20026;-77
2023/08/23 09:32:06;;;;;;;0.77;0.63;;;21.90;78.20;;;;;;5023966;28;20054;-76
2023/08/23 09:34:32;;;;;;;0.95;0.60;;;22.00;78.30;;;;;;5025294;28;20533;-77
2023/08/23 09:37:07;;;;;;;0.88;0.80;;;22.00;78.30;;;;;;5024125;28;20046;-76
2023/08/23 09:39:33;;;;;;;0.60;0.60;;;22.00;78.40;;;;;;5028321;28;20045;-76
2023/08/23 09:42:03;;;;;;;0.75;0.60;;;22.00;78.20;;;;;;5026038;28;20053;-76
2023/08/23 09:44:43;;;;;;;0.60;0.60;;;22.00;78.40;;;;;;5023889;28;20037;-76
2023/08/23 09:47:15;;;;;;;0.73;0.60;;;22.00;77.90;;;;;;5027982;28;20095;-76
2023/08/23 09:49:42;;;;;;;0.52;0.52;;;22.10;77.90;;;;;;5026750;28;20437;-76
2023/08/23 09:52:07;;;;;;;1.48;0.55;;;22.10;77.80;;;;;;5027913;28;20714;-75
2023/08/23 09:54:56;;;;;;;0.95;0.95;;;22.10;77.70;;;;;;5028811;28;20762;-76
2023/08/23 09:57:21;;;;;;;0.60;0.60;;;22.20;77.80;;;;;;5025839;28;20034;-76
2023/08/23 09:59:47;;;;;;;0.82;0.82;;;22.20;77.80;;;;;;5023904;28;20037;-76
2023/08/23 10:02:15;;;;;;;0.85;0.77;;;22.20;77.70;;;;;;5019363;28;20402;-77
2023/08/23 10:04:40;;;;;;;0.70;0.70;;;22.20;77.60;;;;;;4695069;28;10000939;-77
2023/08/23 10:07:08;;;;;;;0.45;0.45;;;22.20;77.60;;;;;;5019178;28;20764;-76
2023/08/23 10:09:36;;;;;;;0.52;0.52;;;22.30;77.60;;;;;;5024732;28;20106;-76
2023/08/23 10:12:03;;;;;;;1.00;0.85;;;22.30;77.50;;;;;;5020523;28;20419;-77
2023/08/23 10:14:28;;;;;;;0.70;0.70;;;22.40;77.60;;;;;;5021616;28;20128;-77
2023/08/23 10:16:54;;;;;;;2.03;0.70;;;22.40;77.60;;;;;;5020698;28;20080;-77
2023/08/23 10:19:19;;;;;;;0.82;0.60;;;22.40;78.30;;;;;;5020533;28;20045;-77
2023/08/23 10:21:45;;;;;;;0.80;0.80;;;22.40;77.80;;;;;;5021835;28;20042;-77
2023/08/23 10:24:11;;;;;;;0.55;0.55;;;22.40;77.60;;;;;;5022551;28;20135;-77
2023/08/23 10:26:49;;;;;;;0.50;0.50;;;22.50;77.50;;;;;;5022164;28;20041;-77
2023/08/23 10:29:21;;;;;;;0.50;0.50;;;22.50;77.40;;;;;;5021398;28;20128;-76
2023/08/23 10:31:54;;;;;;;0.70;0.70;;;22.50;77.40;;;;;;5018912;28;20057;-75
2023/08/23 10:34:27;;;;;;;0.73;0.63;;;22.60;77.40;;;;;;5016392;28;20046;-76
2023/08/23 10:36:56;;;;;;;0.68;0.60;;;22.50;77.10;;;;;;5022321;28;20106;-77
2023/08/23 10:39:22;;;;;;;1.00;0.80;;;22.60;77.00;;;;;;5023603;28;20503;-77
2023/08/23 10:41:56;;;;;;;0.68;0.68;;;22.60;76.80;;;;;;5022238;28;20041;-77
2023/08/23 10:44:22;;;;;;;0.85;0.60;;;22.60;76.80;;;;;;5024842;28;20042;-77
2023/08/23 10:46:49;;;;;;;1.27;0.57;;;22.60;76.70;;;;;;5022386;28;20038;-77
2023/08/23 10:49:16;;;;;;;0.63;0.63;;;22.60;76.80;;;;;;5023890;28;20045;-77
2023/08/23 10:51:42;;;;;;;0.80;0.70;;;22.60;76.80;;;;;;5024456;28;20511;-77
2023/08/23 10:54:14;;;;;;;0.85;0.85;;;22.60;76.70;;;;;;5024040;28;20049;-76
2023/08/23 10:56:40;;;;;;;0.88;0.88;;;22.60;76.60;;;;;;5023050;28;20122;-76
2023/08/23 10:59:08;;;;;;;1.63;1.08;;;22.60;76.50;;;;;;5024618;28;20139;-76
2023/08/23 11:01:34;;;;;;;0.95;0.95;;;22.60;76.80;;;;;;5023522;28;20537;-76
2023/08/23 11:04:03;;;;;;;0.90;0.90;;;22.60;76.70;;;;;;5022874;28;20059;-77
2023/08/23 11:06:29;;;;;;;1.70;1.60;;;22.70;76.70;;;;;;5027769;28;20041;-77
2023/08/23 11:08:56;;;;;;;1.00;1.00;;;22.70;76.50;;;;;;5024717;28;20561;-77
2023/08/23 11:11:21;;;;;;;0.80;0.80;;;22.70;76.50;;;;;;5025681;28;20128;-77
2023/08/23 11:13:47;;;;;;;0.90;0.85;;;22.70;76.60;;;;;;5027534;28;20124;-77
2023/08/23 11:16:13;;;;;;;1.60;1.50;;;22.70;76.30;;;;;;5022065;28;20076;-77
2023/08/23 11:18:39;;;;;;;1.52;1.42;;;22.70;76.20;;;;;;5027179;28;20089;-76
2023/08/23 11:21:04;;;;;;;1.70;1.40;;;22.80;76.20;;;;;;5023874;28;20491;-76
2023/08/23 11:23:30;;;;;;;1.73;1.58;;;22.80;76.20;;;;;;5021764;28;20041;-76
2023/08/23 11:25:56;;;;;;;1.83;1.33;;;22.80;76.20;;;;;;5023613;28;20040;-76
2023/08/23 11:28:21;;;;;;;2.13;1.40;;;22.80;76.10;;;;;;5022728;28;20042;-77
2023/08/23 11:30:47;;;;;;;0.90;0.90;;;22.80;76.00;;;;;;5027195;28;20503;-77
2023/08/23 11:33:13;;;;;;;2.58;1.27;;;22.80;76.10;;;;;;5024469;28;20055;-76
2023/08/23 11:35:39;;;;;;;1.33;1.23;;;22.80;76.20;;;;;;5025643;28;20914;-76
2023/08/23 11:38:05;;;;;;;1.70;1.60;;;22.80;76.20;;;;;;5026036;28;20047;-77
2023/08/23 11:40:33;;;;;;;1.73;1.42;;;22.90;76.20;;;;;;5028154;28;20053;-77
2023/08/23 11:43:00;;;;;;;2.00;1.83;;;22.90;76.10;;;;;;5025739;28;20053;-76
2023/08/23 11:45:26;;;;;;;2.45;2.25;;;22.90;76.10;;;;;;5026844;28;20419;-76
2023/08/23 11:47:53;;;;;;;2.20;2.00;;;22.90;76.50;;;;;;5025994;28;20030;-77
2023/08/23 11:50:19;;;;;;;3.35;2.65;;;22.90;76.00;;;;;;5019522;28;20037;-77
2023/08/23 11:52:47;;;;;;;2.72;2.53;;;22.90;76.10;;;;;;5022236;28;20123;-76
2023/08/23 11:55:18;;;;;;;2.65;2.45;;;22.90;76.10;;;;;;5022606;28;20137;-76
2023/08/23 11:57:49;;;;;;;3.05;2.80;;;22.90;76.00;;;;;;5022999;28;20557;-76
2023/08/23 12:00:15;;;;;;;2.40;2.22;;;22.90;76.00;;;;;;5010077;28;20392;-76
2023/08/23 12:02:40;;;;;;;2.72;2.30;;;22.90;75.90;;;;;;5020505;28;20068;-77
2023/08/23 12:05:08;;;;;;;3.33;3.03;;;23.00;76.20;;;;;;5022476;28;20052;-77
2023/08/23 12:07:33;;;;;;;4.80;3.95;;;23.00;76.80;;;;;;5018456;28;20053;-77
2023/08/23 12:09:59;;;;;;;4.90;4.43;;;23.00;77.30;;;;;;5024190;28;20053;-77
2023/08/23 12:12:24;;;;;;;6.78;5.35;;;23.00;77.40;;;;;;5023075;28;20136;-77
2023/08/23 12:14:50;;;;;;;7.05;5.15;;;23.00;77.10;;;;;;5017458;28;20053;-77
2023/08/23 12:17:15;;;;;;;4.32;3.37;;;23.00;77.30;;;;;;4329385;28;10022517;-76
2023/08/23 12:19:41;;;;;;;5.93;4.95;;;23.10;76.90;;;;;;5020639;28;20038;-77
2023/08/23 12:22:09;;;;;;;5.07;4.60;;;23.10;77.40;;;;;;5016975;28;20057;-76
2023/08/23 12:24:35;;;;;;;6.18;5.20;;;23.00;77.50;;;;;;5021229;28;20116;-76
2023/08/23 12:27:01;;;;;;;5.45;4.10;;;23.10;77.10;;;;;;5022209;28;20136;-76
2023/08/23 12:29:26;;;;;;;7.82;5.90;;;23.10;77.00;;;;;;5019278;28;20125;-76
2023/08/23 12:31:52;;;;;;;7.70;5.97;;;23.20;76.70;;;;;;5020447;28;20120;-76
2023/08/23 12:34:18;;;;;;;8.02;6.03;;;23.20;76.90;;;;;;5019825;28;20119;-77
2023/08/23 12:36:43;;;;;;;7.70;6.20;;;23.20;77.00;;;;;;5025629;28;20120;-76
2023/08/23 12:39:09;;;;;;;8.23;6.00;;;23.10;77.00;;;;;;5027294;28;20053;-76
2023/08/23 12:41:35;;;;;;;6.68;5.15;;;23.20;77.00;;;;;;5023993;28;20049;-76